Time;durP1;ratioP1;P1;durP2;ratioP2;P2;SDS_P1;SDS_P2;PMS_P1;PMS_P2;Temp;Humidity;BMP_temperature;BMP_pressure;BME280_temperature;BME280_humidity;BME280_pressure;Samples;Min_cycle;Max_cycle;Signal;HPM_P1;HPM_P2
2021/03/21 00:01:30;;;;;;;16.70;8.70;;;-7.40;99.90;;;;;;5209775;23;20512;-94
2021/03/21 00:04:35;;;;;;;14.85;8.88;;;-7.30;99.90;;;;;;5029071;28;20470;-95
2021/03/21 00:08:01;;;;;;;17.57;9.50;;;-7.30;99.90;;;;;;5029635;28;20461;-95
2021/03/21 00:11:09;;;;;;;13.63;8.48;;;-7.20;99.90;;;;;;5030300;28;20408;-95
2021/03/21 00:13:58;;;;;;;13.35;8.63;;;-7.00;99.90;;;;;;5029535;28;20479;-94
2021/03/21 00:17:16;;;;;;;12.70;8.40;;;-7.10;99.90;;;;;;5030135;28;20424;-95
2021/03/21 00:20:23;;;;;;;14.82;8.27;;;-7.10;99.90;;;;;;5016493;28;20760;-94
2021/03/21 00:23:46;;;;;;;13.95;8.05;;;-7.10;99.90;;;;;;5031483;28;20417;-95
2021/03/21 00:26:51;;;;;;;14.37;8.50;;;-7.00;99.90;;;;;;4984026;28;20437;-95
2021/03/21 00:30:04;;;;;;;13.95;7.78;;;-6.90;99.90;;;;;;4955365;28;20411;-94
2021/03/21 00:33:21;;;;;;;14.05;7.82;;;-6.80;99.90;;;;;;4983969;28;20435;-95
2021/03/21 00:43:34;;;;;;;16.73;8.88;;;-6.90;99.90;;;;;;5042779;23;20639;-92
2021/03/21 00:50:24;;;;;;;13.10;8.35;;;-7.10;99.90;;;;;;5050141;28;20467;-96
2021/03/21 00:53:40;;;;;;;13.55;8.43;;;-7.00;99.90;;;;;;4950963;28;20419;-94
2021/03/21 00:57:14;;;;;;;13.82;8.10;;;-6.90;99.90;;;;;;4962344;28;20435;-94
2021/03/21 01:00:48;;;;;;;15.35;8.38;;;-6.90;99.90;;;;;;4953196;28;20515;-96
2021/03/21 01:11:53;;;;;;;16.97;10.17;;;-6.80;99.90;;;;;;4854855;29;20504;-95
2021/03/21 01:15:56;;;;;;;16.00;9.57;;;-6.70;99.90;;;;;;4818181;29;20430;-95
2021/03/21 01:26:52;;;;;;;15.10;9.27;;;-6.70;99.90;;;;;;4695159;30;20560;-95
2021/03/21 01:43:45;;;;;;;17.10;10.13;;;-6.30;99.90;;;;;;6280701;22;2045721;-94
2021/03/21 02:23:12;;;;;;;18.80;11.00;;;-6.20;99.90;;;;;;6292486;22;20404;-95
2021/03/21 02:29:35;;;;;;;21.88;11.60;;;-6.20;99.90;;;;;;6266715;22;20397;-93
2021/03/21 02:33:31;;;;;;;22.90;12.88;;;-6.20;99.90;;;;;;6207632;23;20396;-93
2021/03/21 02:36:36;;;;;;;23.27;12.88;;;-6.10;99.90;;;;;;6206850;23;20467;-93
2021/03/21 02:40:02;;;;;;;21.05;12.88;;;-6.20;99.90;;;;;;6184160;23;20368;-93
2021/03/21 02:43:49;;;;;;;25.77;15.25;;;-6.10;99.90;;;;;;6079424;23;20404;-93
2021/03/21 02:46:32;;;;;;;24.88;14.95;;;-6.00;99.90;;;;;;6012671;23;20777;-93
2021/03/21 02:49:45;;;;;;;26.00;16.30;;;-6.00;99.90;;;;;;6023406;23;20448;-96
2021/03/21 02:52:29;;;;;;;15.65;8.45;;;-6.00;99.90;;;;;;6036445;23;20402;-95
2021/03/21 02:55:25;;;;;;;17.52;10.52;;;-5.90;99.90;;;;;;6048719;23;20439;-93
2021/03/21 02:58:13;;;;;;;23.30;13.43;;;-5.70;99.90;;;;;;6051941;23;20485;-95
2021/03/21 03:01:14;;;;;;;23.02;14.75;;;-5.70;99.90;;;;;;6030228;23;20393;-93
2021/03/21 03:36:42;;;;;;;31.83;19.15;;;-5.90;99.90;;;;;;6325965;22;20468;-96
2021/03/21 03:39:45;;;;;;;39.13;22.88;;;-5.80;99.90;;;;;;6230656;23;20382;-95
2021/03/21 03:46:49;;;;;;;35.10;19.90;;;-5.70;99.90;;;;;;6229944;23;20367;-94
2021/03/21 03:50:55;;;;;;;35.50;19.20;;;-5.60;99.90;;;;;;6207063;23;20467;-94
2021/03/21 05:14:16;;;;;;;37.80;19.75;;;-5.50;99.90;;;;;;6257943;23;20906;-96
2021/03/21 05:17:41;;;;;;;41.28;21.10;;;-5.50;99.90;;;;;;6150399;23;20403;-95
2021/03/21 05:30:31;;;;;;;45.35;25.55;;;-5.40;99.90;;;;;;6226878;23;20694;-94
2021/03/21 05:34:01;;;;;;;49.28;28.58;;;-5.30;99.90;;;;;;6216667;23;20392;-94
2021/03/21 05:37:21;;;;;;;45.80;27.30;;;-5.20;99.90;;;;;;6154227;23;20379;-94
2021/03/21 05:40:40;;;;;;;41.53;19.73;;;-5.20;99.90;;;;;;6178683;23;20393;-96
2021/03/21 05:43:45;;;;;;;39.40;21.90;;;-5.20;99.90;;;;;;6191354;23;20426;-95
2021/03/21 05:47:16;;;;;;;44.25;22.30;;;-5.20;99.90;;;;;;6195347;23;20398;-96
2021/03/21 05:50:54;;;;;;;38.60;21.35;;;-5.20;99.90;;;;;;6083871;23;20576;-96
2021/03/21 05:54:24;;;;;;;29.40;15.77;;;-5.10;99.90;;;;;;6106133;23;20499;-95
2021/03/21 05:57:57;;;;;;;36.40;18.93;;;-5.10;99.90;;;;;;6087408;23;20409;-95
2021/03/21 06:05:12;;;;;;;42.78;25.13;;;-5.10;99.90;;;;;;6047118;23;20832;-96
2021/03/21 06:08:46;;;;;;;42.23;23.00;;;-5.10;99.90;;;;;;6054200;23;20394;-95
2021/03/21 06:12:10;;;;;;;35.10;19.05;;;-5.00;99.90;;;;;;6008371;23;20396;-95
2021/03/21 06:15:55;;;;;;;39.75;23.63;;;-4.90;99.90;;;;;;6045846;23;20428;-95
2021/03/21 06:19:40;;;;;;;29.17;18.33;;;-4.90;99.90;;;;;;6052752;23;20382;-95
2021/03/21 06:23:39;;;;;;;31.90;18.70;;;-5.00;99.90;;;;;;6025762;23;20390;-94
2021/03/21 06:29:43;;;;;;;45.45;24.35;;;-5.00;99.90;;;;;;6311704;22;20376;-94
2021/03/21 06:32:50;;;;;;;29.67;15.45;;;-4.90;99.90;;;;;;6322810;22;20388;-96
2021/03/21 06:36:10;;;;;;;42.97;22.88;;;-4.90;99.90;;;;;;6329315;22;20837;-96
2021/03/21 06:39:20;;;;;;;23.53;11.33;;;-4.80;99.90;;;;;;6207119;23;20431;-96
2021/03/21 06:42:06;;;;;;;28.98;16.40;;;-4.70;99.90;;;;;;6136212;23;20406;-96
2021/03/21 06:45:10;;;;;;;29.95;15.43;;;-4.70;99.90;;;;;;6138426;23;20386;-96
2021/03/21 06:47:49;;;;;;;17.88;9.85;;;-4.80;99.90;;;;;;6137287;23;20391;-96
2021/03/21 06:50:32;;;;;;;17.80;9.80;;;-4.70;99.90;;;;;;6143772;23;20399;-96
2021/03/21 06:53:15;;;;;;;23.10;9.73;;;-4.70;99.90;;;;;;6137317;23;20406;-96
2021/03/21 06:55:52;;;;;;;24.00;10.80;;;-4.70;99.90;;;;;;6138739;23;20834;-96
2021/03/21 06:58:55;;;;;;;35.25;18.73;;;-4.80;99.90;;;;;;6136573;23;20473;-95
2021/03/21 07:01:36;;;;;;;22.73;13.10;;;-4.80;99.90;;;;;;6156715;23;20391;-96
2021/03/21 07:04:42;;;;;;;20.05;9.02;;;-4.70;99.90;;;;;;6134608;23;20383;-96
2021/03/21 07:08:02;;;;;;;;;;;;;;;;;;;;;
2021/03/21 07:11:15;;;;;;;34.22;15.98;;;-4.70;99.90;;;;;;6160885;23;20434;-96
2021/03/21 07:15:01;;;;;;;32.70;19.60;;;-4.60;99.90;;;;;;6138321;23;20494;-96
2021/03/21 07:25:11;;;;;;;23.03;10.60;;;-4.30;99.90;;;;;;6187791;23;20986;-96
2021/03/21 07:32:58;;;;;;;;;;;;;;;;;;;;;
2021/03/21 07:44:19;;;;;;;20.27;10.23;;;-3.90;99.90;;;;;;6320246;22;20397;-96
2021/03/21 07:48:06;;;;;;;22.73;12.10;;;-3.70;99.90;;;;;;6301795;22;20449;-94
2021/03/21 07:55:21;;;;;;;16.95;9.48;;;-3.70;99.90;;;;;;6344663;22;20426;-95
2021/03/21 07:58:02;;;;;;;17.67;8.27;;;-3.60;99.90;;;;;;6312890;22;20391;-94
2021/03/21 08:00:53;;;;;;;21.33;12.32;;;-3.70;99.90;;;;;;6316777;22;20381;-94
2021/03/21 08:04:50;;;;;;;21.85;11.65;;;-3.60;99.90;;;;;;6262468;22;20357;-94
2021/03/21 08:08:01;;;;;;;20.38;10.65;;;-3.70;99.90;;;;;;6290401;22;20383;-94
2021/03/21 08:11:27;;;;;;;17.50;10.00;;;-3.60;99.90;;;;;;6334873;22;20390;-95
2021/03/21 08:15:05;;;;;;;16.98;10.30;;;-3.50;99.90;;;;;;6287438;22;20356;-94
2021/03/21 08:22:31;;;;;;;16.40;10.80;;;-3.50;99.90;;;;;;6195316;23;20442;-96
2021/03/21 08:26:03;;;;;;;19.88;10.75;;;-3.40;99.90;;;;;;6166999;23;20365;-95
2021/03/21 08:29:27;;;;;;;20.40;10.33;;;-3.30;99.90;;;;;;6188541;23;20431;-94
2021/03/21 08:36:31;;;;;;;13.50;6.70;;;-3.30;99.90;;;;;;6178783;23;20374;-94
2021/03/21 08:40:14;;;;;;;20.15;9.25;;;-3.20;99.90;;;;;;6135210;23;20380;-94
2021/03/21 10:46:51;;;;;;;8.85;3.92;;;-2.90;99.90;;;;;;6351211;22;20381;-96
2021/03/21 10:50:07;;;;;;;12.55;4.95;;;-2.90;99.90;;;;;;6328029;22;20438;-94
2021/03/21 10:56:35;;;;;;;13.40;7.68;;;-2.80;99.90;;;;;;6319080;22;20378;-96
2021/03/21 10:59:37;;;;;;;10.65;5.78;;;-2.70;99.90;;;;;;6295661;22;20379;-95
2021/03/21 11:02:37;;;;;;;11.23;6.70;;;-2.70;99.90;;;;;;6260592;22;20418;-96
2021/03/21 11:06:15;;;;;;;12.43;5.85;;;-2.70;99.90;;;;;;6199134;23;20420;-95
2021/03/21 11:09:34;;;;;;;10.63;6.35;;;-2.70;99.90;;;;;;6197393;23;20395;-95
2021/03/21 11:12:55;;;;;;;14.63;6.03;;;-2.70;99.90;;;;;;6137826;23;20415;-95
2021/03/21 11:16:14;;;;;;;13.27;7.57;;;-2.80;99.90;;;;;;6118739;23;20387;-96
2021/03/21 11:20:02;;;;;;;15.20;8.05;;;-2.70;99.90;;;;;;6082600;23;20392;-94
2021/03/21 11:23:42;;;;;;;11.50;6.50;;;-2.60;99.90;;;;;;6083191;23;20399;-95
2021/03/21 11:27:19;;;;;;;12.70;5.47;;;-2.60;99.90;;;;;;5942719;23;20555;-95
2021/03/21 11:43:00;;;;;;;11.27;6.57;;;-2.60;99.90;;;;;;6313631;22;20390;-94
2021/03/21 11:52:28;;;;;;;11.52;5.40;;;-2.60;99.90;;;;;;6324304;22;20400;-95
2021/03/21 11:56:07;;;;;;;7.05;4.47;;;-2.60;99.90;;;;;;6324195;22;20381;-94
2021/03/21 12:00:06;;;;;;;11.30;5.10;;;-2.70;99.90;;;;;;6274844;22;20379;-93
2021/03/21 12:10:05;;;;;;;16.13;7.17;;;-2.50;99.90;;;;;;6259764;22;20456;-96
2021/03/21 12:13:27;;;;;;;12.70;6.65;;;-2.50;99.90;;;;;;6240064;23;20354;-95
2021/03/21 12:47:40;;;;;;;;;;;;;;;;;;;;;
2021/03/21 12:50:53;;;;;;;12.90;6.47;;;-2.60;99.90;;;;;;6215892;23;20402;-96
2021/03/21 12:54:15;;;;;;;14.73;8.77;;;-2.60;99.90;;;;;;6086619;23;20382;-96
2021/03/21 13:00:06;;;;;;;12.77;6.95;;;-2.60;99.90;;;;;;6345183;22;20725;-96
2021/03/21 13:03:17;;;;;;;15.63;7.93;;;-2.80;99.90;;;;;;6283190;22;20675;-95
2021/03/21 13:50:00;;;;;;;16.02;9.52;;;-2.70;99.90;;;;;;6326713;22;20384;-96
2021/03/21 14:36:50;;;;;;;18.92;10.10;;;-2.70;99.90;;;;;;6327510;22;20404;-95
2021/03/21 14:39:20;;;;;;;19.77;8.10;;;-2.70;99.90;;;;;;6314826;22;20377;-94
2021/03/21 14:41:50;;;;;;;49.92;24.52;;;-2.70;99.90;;;;;;6341034;22;20381;-96
2021/03/21 14:44:18;;;;;;;28.43;15.80;;;-2.70;99.90;;;;;;6314961;22;20478;-96
2021/03/21 14:46:45;;;;;;;17.20;7.37;;;-2.70;99.90;;;;;;6315300;22;20404;-92
2021/03/21 14:49:16;;;;;;;13.85;7.55;;;-2.70;99.90;;;;;;6315757;22;20440;-94
2021/03/21 14:51:46;;;;;;;19.90;10.47;;;-2.70;99.90;;;;;;6315153;22;20373;-93
2021/03/21 14:54:13;;;;;;;13.90;6.33;;;-2.70;99.90;;;;;;6314537;22;20408;-93
2021/03/21 14:56:40;;;;;;;14.52;7.85;;;-2.70;99.90;;;;;;6313498;22;20408;-92
2021/03/21 14:59:06;;;;;;;12.83;7.73;;;-2.60;99.90;;;;;;6312858;22;20380;-95
2021/03/21 15:01:34;;;;;;;18.60;10.45;;;-2.70;99.90;;;;;;6315679;22;20508;-93
2021/03/21 15:04:02;;;;;;;14.25;8.43;;;-2.60;99.90;;;;;;6315121;22;20361;-95
2021/03/21 15:06:29;;;;;;;19.50;9.57;;;-2.70;99.90;;;;;;6315311;22;20396;-96
2021/03/21 15:08:57;;;;;;;16.58;9.88;;;-2.70;99.90;;;;;;6314225;22;20403;-92
2021/03/21 15:11:29;;;;;;;14.15;7.95;;;-2.60;99.90;;;;;;6317268;22;20380;-93
2021/03/21 15:13:55;;;;;;;35.75;18.40;;;-2.60;99.90;;;;;;6320638;22;20397;-91
2021/03/21 15:16:26;;;;;;;23.48;11.77;;;-2.60;99.90;;;;;;6321531;22;20372;-92
2021/03/21 15:18:56;;;;;;;27.27;15.85;;;-2.60;99.90;;;;;;6348805;22;20434;-93
2021/03/21 15:21:26;;;;;;;29.58;15.65;;;-2.60;99.90;;;;;;6342323;22;20767;-92
2021/03/21 15:23:53;;;;;;;13.00;7.68;;;-2.60;99.90;;;;;;6313248;22;20377;-93
2021/03/21 15:26:20;;;;;;;18.88;10.30;;;-2.60;99.90;;;;;;6312170;22;20483;-92
2021/03/21 15:28:51;;;;;;;12.05;7.43;;;-2.60;99.90;;;;;;6312205;22;20389;-95
2021/03/21 15:31:36;;;;;;;28.88;12.20;;;-2.60;99.90;;;;;;6312094;22;20778;-96
2021/03/21 15:34:10;;;;;;;38.45;18.17;;;-2.50;99.90;;;;;;6313421;22;20377;-94
2021/03/21 15:36:38;;;;;;;30.17;14.18;;;-2.50;99.90;;;;;;6311714;22;20384;-91
2021/03/21 15:39:08;;;;;;;27.02;13.68;;;-2.50;99.90;;;;;;6313120;22;20400;-95
2021/03/21 15:41:38;;;;;;;17.58;9.65;;;-2.50;99.90;;;;;;6313390;22;20864;-94
2021/03/21 15:44:05;;;;;;;54.05;10.25;;;-2.50;99.90;;;;;;6312127;22;20400;-95
2021/03/21 15:46:32;;;;;;;17.33;7.87;;;-2.50;99.90;;;;;;6312169;22;20468;-94
2021/03/21 15:48:59;;;;;;;13.25;7.22;;;-2.60;99.90;;;;;;6311585;22;20400;-91
2021/03/21 15:51:29;;;;;;;762.53;51.42;;;-2.50;99.90;;;;;;6311184;22;20891;-93
2021/03/21 15:53:57;;;;;;;427.40;33.05;;;-2.60;99.90;;;;;;6313072;22;20441;-93
2021/03/21 15:56:24;;;;;;;75.23;14.30;;;-2.50;99.90;;;;;;6311750;22;20467;-93
2021/03/21 17:12:40;;;;;;;1212.47;72.95;;;-2.40;99.90;;;;;;6291471;22;20871;-95
2021/03/21 17:27:58;;;;;;;1210.47;68.00;;;-2.30;99.90;;;;;;6248251;22;20372;-95
2021/03/21 17:35:47;;;;;;;1999.90;137.70;;;-2.40;99.90;;;;;;6290615;22;20385;-96
2021/03/21 20:03:02;;;;;;;1568.47;116.73;;;-1.80;99.90;;;;;;6268330;22;21501;31
2021/03/21 22:30:28;;;;;;;1461.43;105.30;;;-1.50;99.90;;;;;;6246113;22;20478;-96
2021/03/21 22:53:58;;;;;;;1746.32;124.35;;;-1.40;99.90;;;;;;6349670;22;20404;-96
2021/03/21 22:56:53;;;;;;;1779.53;125.93;;;-1.40;99.90;;;;;;6312163;22;20391;-96
2021/03/21 23:00:06;;;;;;;334.52;77.63;;;-1.40;99.90;;;;;;6335781;22;20435;-95
2021/03/21 23:02:50;;;;;;;992.65;103.07;;;-1.30;99.90;;;;;;6308056;22;20369;-96
2021/03/21 23:06:07;;;;;;;;;;;;;;;;;;;;;
2021/03/21 23:09:05;;;;;;;645.90;82.03;;;-1.30;99.90;;;;;;6354955;22;20385;-96
2021/03/21 23:12:44;;;;;;;1999.90;137.77;;;-1.20;99.90;;;;;;6355458;22;20398;-96
2021/03/21 23:15:37;;;;;;;1572.45;119.53;;;-1.30;99.90;;;;;;6228342;23;20488;-95
2021/03/21 23:18:31;;;;;;;809.58;95.18;;;-1.30;99.90;;;;;;6258643;23;20386;-96
2021/03/21 23:21:51;;;;;;;813.67;82.25;;;-1.20;99.90;;;;;;6183414;23;20383;-96
2021/03/21 23:24:30;;;;;;;1564.75;123.65;;;-1.20;99.90;;;;;;6227545;23;20391;-96
2021/03/21 23:27:22;;;;;;;806.88;86.75;;;-1.30;99.90;;;;;;6229751;23;20373;-95
2021/03/21 23:29:58;;;;;;;395.23;76.68;;;-1.20;99.90;;;;;;6204850;23;20477;-96
2021/03/21 23:32:43;;;;;;;696.05;84.55;;;-1.30;99.90;;;;;;6191451;23;20408;-96
2021/03/21 23:35:15;;;;;;;1069.57;96.03;;;-1.30;99.90;;;;;;6175198;23;20914;-96
2021/03/21 23:38:10;;;;;;;792.85;84.70;;;-1.20;99.90;;;;;;6223010;23;20442;-96
2021/03/21 23:41:08;;;;;;;223.00;68.22;;;-1.20;99.90;;;;;;6217814;23;20461;-96
2021/03/21 23:43:44;;;;;;;230.10;63.47;;;-1.20;99.90;;;;;;6225972;23;20375;-96
2021/03/21 23:46:50;;;;;;;;;;;;;;;;;;;;;
2021/03/21 23:50:03;;;;;;;138.48;59.85;;;-1.20;99.90;;;;;;6106124;23;20406;-96
2021/03/21 23:53:12;;;;;;;;;;;;;;;;;;;;;
2021/03/21 23:55:56;;;;;;;138.02;58.05;;;-1.10;99.90;;;;;;6052568;23;20381;-96
